Clyde River Airport
CYCY : now visible

Airfield :











YOU CAN JOIN US ON...

 
LOGIN :

Register | Disclaimer

   EN    FR    IT 

 









Legend :    VFR   Marginal VFR   IFR   Intensive IFR   Very Intensive IFR
Visi :
Ceiling :
>= 8 km
>= 3000ft
5 to 8 km
1000 to 3000 ft
1500m to 5 km
500 to 1000 ft
800 to 1500m
200 to 500 ft
< 800m
< 200 ft
Symbols :   Thunderstorms  Fog  Heavy snow  Heavy precipitations  Wind > 20 kt






- Airport Elevation : 87 ft
- IATA code : YCY


CYCY - Clyde River

CURRENT METAR :
  • 212100Z AUTO 31026G31KT 1/2SM SN BLSN M21/M23 A2936 RMK CLD MISG SLP949

EXPIRED METARs :
  • 212000Z AUTO 31024G33KT 3/8SM SN BLSN M21/M23 A2936 RMK CLD MISG SLP949
  • 211951Z AUTO 31027G34KT 3/8SM SN BLSN M21/M23 A2937 RMK CLD MISG SLP950
  • 211900Z AUTO 31027G32KT 0SM +SN BLSN VV014 M21/M23 A2936 RMK SLP948

TAF TAF CYCY
Valid from the 21 at 19:00 until the 22 at 07:00 UTC


211838Z 2119/2207 31030G40KT 0SM -SN +BLSN VV008
TEMPO 2119/2121 1/4SM -SN +BLSN VV020
FM212100 30025G35KT 3/4SM -SN BLSN OVC020
TEMPO 2121/2123 21/2SM -SN BLSN BKN030
FM212300 29015G25KT P6SM BKN040
TEMPO 2123/2207 21/4SM -SN BKN020 RMK FCST BASED ON AUTO OBS. NXT FCST BY 220100Z



MET'MAP, your aeronautical weather chart ! - Copyright ORBIFLY December 2007 - Disclaimer

ORBIFLY MET'MAP TEAM :

Programming & Development : Alexandra Zaïnal
Concept & original design : Baudouin d'Aumeries
Assistance for programming : Marc-Olivier Méhu
Technical & hardware support : Manuel Goepfert

Contact : metmap@orbifly.com




SOURCES & CREDITS :

   NOAA       Earth
Advisory